Time;durP1;ratioP1;P1;durP2;ratioP2;P2;SDS_P1;SDS_P2;PMS_P1;PMS_P2;Temp;Humidity;BMP_temperature;BMP_pressure;BME280_temperature;BME280_humidity;BME280_pressure;Samples;Min_cycle;Max_cycle;Signal;HPM_P1;HPM_P2
2022/12/30 00:00:46;;;;;;;22.38;3.90;;;6.70;99.90;;;;;;4949502;28;20094;-82
2022/12/30 00:03:12;;;;;;;25.65;4.75;;;6.60;99.90;;;;;;4950942;28;20046;-83
2022/12/30 00:05:37;;;;;;;18.85;3.28;;;6.60;99.90;;;;;;4948322;28;20578;-82
2022/12/30 00:08:03;;;;;;;22.02;2.97;;;6.60;99.90;;;;;;4933481;28;20054;-82
2022/12/30 00:10:29;;;;;;;18.75;3.70;;;6.50;99.90;;;;;;4930815;28;20050;-82
2022/12/30 00:35:21;;;;;;;24.55;3.63;;;6.50;99.90;;;;;;4947480;28;20035;-82
2022/12/30 00:37:46;;;;;;;22.55;3.83;;;6.50;99.90;;;;;;4947984;28;20488;-83
2022/12/30 00:40:12;;;;;;;24.70;3.90;;;6.50;99.90;;;;;;4932453;29;20039;-83
2022/12/30 00:45:24;;;;;;;27.60;4.28;;;6.40;99.90;;;;;;4964924;28;20058;-83
2022/12/30 00:47:50;;;;;;;23.33;4.28;;;6.30;99.90;;;;;;4937006;28;20098;-82
2022/12/30 00:58:29;;;;;;;18.98;4.45;;;6.30;99.90;;;;;;4950555;28;20110;-82
2022/12/30 01:00:55;;;;;;;20.27;3.38;;;6.30;99.90;;;;;;4950997;29;20039;-82
2022/12/30 01:03:21;;;;;;;24.88;3.13;;;6.30;99.90;;;;;;4943679;28;20071;-82
2022/12/30 01:05:46;;;;;;;27.15;3.78;;;6.30;99.90;;;;;;4946596;28;20043;-82
2022/12/30 01:08:12;;;;;;;19.67;3.22;;;6.20;99.90;;;;;;4946478;28;20050;-82
2022/12/30 01:10:38;;;;;;;23.65;3.47;;;6.30;99.90;;;;;;4931373;28;20043;-82
2022/12/30 01:13:04;;;;;;;23.00;3.90;;;6.30;99.90;;;;;;4935947;29;20038;-82
2022/12/30 01:15:30;;;;;;;21.73;3.22;;;6.20;99.90;;;;;;4946477;28;20035;-82
2022/12/30 01:17:55;;;;;;;27.65;3.58;;;6.20;99.90;;;;;;4948805;28;21455;-83
2022/12/30 01:20:21;;;;;;;24.48;4.00;;;6.20;99.90;;;;;;4950354;29;20542;-82
2022/12/30 01:22:46;;;;;;;22.33;3.13;;;6.10;99.90;;;;;;4947984;28;20405;-82
2022/12/30 01:25:12;;;;;;;20.27;3.55;;;6.10;99.90;;;;;;4932654;28;20043;-82
2022/12/30 01:27:37;;;;;;;21.80;3.47;;;6.10;99.90;;;;;;4948693;29;20114;-82
2022/12/30 01:30:03;;;;;;;18.70;3.60;;;6.10;99.90;;;;;;4931399;28;20071;-82
2022/12/30 01:32:30;;;;;;;23.40;3.20;;;6.10;99.90;;;;;;4929482;29;20047;-82
2022/12/30 01:34:56;;;;;;;16.83;3.72;;;6.10;99.90;;;;;;4928832;29;20088;-82
2022/12/30 01:37:23;;;;;;;20.13;3.20;;;6.10;99.90;;;;;;4946508;28;20127;-82
2022/12/30 01:39:48;;;;;;;29.60;3.25;;;6.10;99.90;;;;;;4950396;29;20063;-82
2022/12/30 01:42:24;;;;;;;17.20;3.10;;;6.00;99.90;;;;;;4932625;29;20043;-82
2022/12/30 01:44:49;;;;;;;19.45;4.15;;;6.00;99.90;;;;;;4946865;28;20548;-82
2022/12/30 01:47:27;;;;;;;19.00;3.58;;;6.00;99.90;;;;;;4964067;28;20043;-82
2022/12/30 01:49:58;;;;;;;18.33;3.42;;;5.90;99.90;;;;;;4947196;28;20035;-82
2022/12/30 01:52:25;;;;;;;16.08;4.03;;;5.90;99.90;;;;;;4937608;29;20039;-82
2022/12/30 01:54:59;;;;;;;24.58;4.28;;;5.90;99.90;;;;;;4930858;29;20043;-82
2022/12/30 01:57:25;;;;;;;28.45;4.85;;;5.90;99.90;;;;;;4946647;28;20490;-83
2022/12/30 01:59:51;;;;;;;21.38;4.40;;;5.90;99.90;;;;;;4946606;28;20046;-82
2022/12/30 02:02:17;;;;;;;19.50;3.33;;;5.80;99.90;;;;;;4936171;29;20050;-82
2022/12/30 02:04:42;;;;;;;17.23;3.47;;;5.80;99.90;;;;;;4950924;29;20136;-82
2022/12/30 02:07:39;;;;;;;24.75;3.63;;;5.80;99.90;;;;;;4947879;28;20497;-82
2022/12/30 02:10:07;;;;;;;18.38;3.10;;;5.80;99.90;;;;;;4946436;29;20074;-83
2022/12/30 02:12:32;;;;;;;18.70;3.17;;;5.80;99.90;;;;;;4940379;29;20039;-82
2022/12/30 02:14:58;;;;;;;22.67;3.70;;;5.80;99.90;;;;;;4932954;29;20050;-84
2022/12/30 02:17:41;;;;;;;22.50;3.70;;;5.80;99.90;;;;;;4949463;29;20478;-82
2022/12/30 02:20:32;;;;;;;22.92;3.65;;;5.80;99.90;;;;;;4940692;29;20039;-82
2022/12/30 02:23:04;;;;;;;17.35;3.05;;;5.80;99.90;;;;;;4932559;29;20083;-82
2022/12/30 02:25:42;;;;;;;27.33;4.45;;;5.80;99.90;;;;;;4930739;29;20969;-82
2022/12/30 02:28:26;;;;;;;13.98;3.28;;;5.80;99.90;;;;;;4930681;29;20704;-82
2022/12/30 02:30:54;;;;;;;26.92;4.78;;;5.80;99.90;;;;;;4949374;29;20055;-82
2022/12/30 02:33:44;;;;;;;23.70;4.05;;;5.70;99.90;;;;;;4936606;29;20053;-82
2022/12/30 02:36:19;;;;;;;23.00;4.43;;;5.70;99.90;;;;;;4942024;29;20095;-82
2022/12/30 02:39:02;;;;;;;19.13;3.70;;;5.70;99.90;;;;;;4936362;29;20085;-82
2022/12/30 02:44:38;;;;;;;26.02;5.10;;;5.70;99.90;;;;;;4948344;28;20085;-82
2022/12/30 02:47:23;;;;;;;21.52;3.28;;;5.70;99.90;;;;;;4938008;29;20473;-82
2022/12/30 02:52:41;;;;;;;24.17;3.40;;;5.70;99.90;;;;;;4950023;28;20083;-83
2022/12/30 02:55:08;;;;;;;28.23;5.22;;;5.60;99.90;;;;;;4946875;28;20039;-82
2022/12/30 02:57:35;;;;;;;21.48;3.03;;;5.70;99.90;;;;;;4948055;29;20506;-82
2022/12/30 03:06:15;;;;;;;19.20;3.13;;;5.60;99.90;;;;;;4953162;29;20046;-82
2022/12/30 03:09:07;;;;;;;18.65;3.40;;;5.60;99.90;;;;;;4938037;29;20040;-82
2022/12/30 03:11:56;;;;;;;19.30;3.30;;;5.60;99.90;;;;;;4935529;29;20041;-82
2022/12/30 03:14:47;;;;;;;16.75;3.35;;;5.70;99.90;;;;;;4954950;28;20046;-82
2022/12/30 03:17:21;;;;;;;26.25;2.95;;;5.70;99.90;;;;;;4947777;28;20040;-82
2022/12/30 03:19:51;;;;;;;17.50;2.90;;;5.70;99.90;;;;;;4954314;29;20490;-82
2022/12/30 03:27:53;;;;;;;18.40;2.58;;;5.60;99.90;;;;;;4952754;29;20486;-82
2022/12/30 03:30:19;;;;;;;18.80;3.17;;;5.60;99.90;;;;;;4951915;29;20044;-82
2022/12/30 03:32:46;;;;;;;16.55;2.88;;;5.60;99.90;;;;;;4950383;29;20134;-82
2022/12/30 03:35:12;;;;;;;22.20;3.45;;;5.50;99.90;;;;;;4933434;29;20039;-82
2022/12/30 03:37:49;;;;;;;21.02;3.10;;;5.50;99.90;;;;;;4937152;29;20044;-82
2022/12/30 03:40:40;;;;;;;18.25;3.17;;;5.50;99.90;;;;;;4963102;28;20468;-82
2022/12/30 03:43:06;;;;;;;17.17;3.65;;;5.50;99.90;;;;;;4944836;28;21306;-82
2022/12/30 03:45:32;;;;;;;26.33;5.28;;;5.50;99.90;;;;;;4949071;28;20043;-82
2022/12/30 03:47:58;;;;;;;21.30;3.28;;;5.50;99.90;;;;;;4949705;29;20501;-82
2022/12/30 03:50:23;;;;;;;17.08;2.80;;;5.50;99.90;;;;;;4948123;29;20062;-82
2022/12/30 03:52:49;;;;;;;19.50;2.83;;;5.50;99.90;;;;;;4944614;29;20075;-81
2022/12/30 03:55:15;;;;;;;20.80;3.35;;;5.50;99.90;;;;;;4960324;28;20090;-81
2022/12/30 03:57:41;;;;;;;21.92;3.15;;;5.50;99.90;;;;;;4942914;29;20036;-81
2022/12/30 04:00:08;;;;;;;21.45;4.22;;;5.50;99.90;;;;;;4945426;29;20047;-81
2022/12/30 04:02:35;;;;;;;13.57;2.53;;;5.50;99.90;;;;;;4946527;29;20118;-81
2022/12/30 04:05:00;;;;;;;18.25;2.55;;;5.50;99.90;;;;;;4932580;29;20078;-81
2022/12/30 04:07:26;;;;;;;19.10;3.08;;;5.50;99.90;;;;;;4945412;29;20055;-81
2022/12/30 04:09:52;;;;;;;19.85;3.78;;;5.40;99.90;;;;;;4946295;29;20114;-81
2022/12/30 04:12:17;;;;;;;16.65;3.22;;;5.50;99.90;;;;;;4932248;29;20044;-81
2022/12/30 04:14:43;;;;;;;16.85;2.63;;;5.40;99.90;;;;;;4944872;29;20046;-81
2022/12/30 04:17:09;;;;;;;21.55;3.47;;;5.40;99.90;;;;;;4928867;29;20043;-81
2022/12/30 04:19:34;;;;;;;23.60;3.13;;;5.40;99.90;;;;;;4944431;29;20032;-82
2022/12/30 04:22:00;;;;;;;22.77;3.72;;;5.30;99.90;;;;;;4943577;29;20046;-82
2022/12/30 04:24:25;;;;;;;22.50;4.10;;;5.30;99.90;;;;;;4931631;29;20517;-81
2022/12/30 04:26:51;;;;;;;13.95;2.88;;;5.30;99.90;;;;;;4942742;29;20302;-81
2022/12/30 04:29:17;;;;;;;18.17;3.88;;;5.30;99.90;;;;;;4933245;29;20082;-81
2022/12/30 04:31:42;;;;;;;16.67;3.63;;;5.30;99.90;;;;;;4934016;29;20451;-81
2022/12/30 04:34:08;;;;;;;16.75;2.42;;;5.30;99.90;;;;;;4942463;29;20042;-82
2022/12/30 04:36:34;;;;;;;15.30;3.20;;;5.30;99.90;;;;;;4930653;29;20035;-81
2022/12/30 04:38:59;;;;;;;15.98;3.25;;;5.30;99.90;;;;;;4944079;29;20031;-81
2022/12/30 04:41:25;;;;;;;14.23;3.28;;;5.30;99.90;;;;;;4931414;29;20038;-81
2022/12/30 04:43:51;;;;;;;16.30;5.28;;;5.30;99.90;;;;;;4944082;28;20071;-81
2022/12/30 04:46:16;;;;;;;19.25;3.80;;;5.30;99.90;;;;;;4944902;29;20054;-81
2022/12/30 04:48:42;;;;;;;14.90;3.00;;;5.20;99.90;;;;;;4944096;29;20110;-81
2022/12/30 04:51:07;;;;;;;19.20;4.10;;;5.20;99.90;;;;;;4946907;29;20467;-81
2022/12/30 04:53:33;;;;;;;20.30;3.35;;;5.20;99.90;;;;;;4943471;29;20035;-81
2022/12/30 04:55:59;;;;;;;16.05;2.72;;;5.20;99.90;;;;;;4943718;29;20074;-82
2022/12/30 04:58:25;;;;;;;15.48;3.15;;;5.20;99.90;;;;;;4962103;28;20039;-82
2022/12/30 05:00:52;;;;;;;18.80;3.50;;;5.10;99.90;;;;;;4932569;29;20031;-82
2022/12/30 05:03:17;;;;;;;18.00;2.90;;;5.10;99.90;;;;;;4952497;28;20097;-83
2022/12/30 05:05:43;;;;;;;13.50;3.92;;;5.10;99.90;;;;;;4936955;29;20043;-83
2022/12/30 05:08:09;;;;;;;19.50;3.45;;;5.10;99.90;;;;;;4935984;29;20035;-83
2022/12/30 05:10:36;;;;;;;20.58;4.60;;;5.10;99.90;;;;;;4939258;29;20473;-83
2022/12/30 05:13:02;;;;;;;18.67;3.92;;;5.10;99.90;;;;;;4937847;29;20070;-82
2022/12/30 05:15:27;;;;;;;16.35;3.92;;;5.10;99.90;;;;;;4932702;29;20031;-82
2022/12/30 05:17:53;;;;;;;20.15;3.83;;;5.10;99.90;;;;;;4947277;29;20039;-83
2022/12/30 05:20:19;;;;;;;20.65;3.25;;;5.00;99.90;;;;;;4947572;29;20038;-82
2022/12/30 05:22:44;;;;;;;20.52;2.80;;;5.00;99.90;;;;;;4953230;29;20051;-82
2022/12/30 05:27:54;;;;;;;20.80;3.40;;;5.00;99.90;;;;;;4948716;29;20040;-83
2022/12/30 05:30:20;;;;;;;14.93;3.08;;;5.00;99.90;;;;;;4935126;29;20039;-83
2022/12/30 05:32:46;;;;;;;16.55;4.53;;;4.90;99.90;;;;;;4947706;29;20071;-82
2022/12/30 05:35:11;;;;;;;16.85;3.85;;;5.00;99.90;;;;;;4949124;29;20035;-82
2022/12/30 05:38:19;;;;;;;16.67;3.60;;;5.00;99.90;;;;;;4946147;28;20057;-82
2022/12/30 05:41:05;;;;;;;18.15;3.33;;;5.10;99.90;;;;;;4951910;28;20537;-82
2022/12/30 05:43:34;;;;;;;12.32;2.63;;;6.10;99.90;;;;;;4937401;29;20054;-82
2022/12/30 05:46:06;;;;;;;14.82;3.60;;;5.00;99.90;;;;;;4943128;28;20091;-82
2022/12/30 05:48:35;;;;;;;14.93;3.03;;;5.20;99.90;;;;;;4938855;29;20103;-82
2022/12/30 05:51:37;;;;;;;14.55;3.22;;;5.00;99.90;;;;;;4937536;29;20497;-82
2022/12/30 05:54:22;;;;;;;14.93;3.00;;;5.10;99.90;;;;;;4954636;29;20058;-82
2022/12/30 06:01:04;;;;;;;11.05;2.47;;;5.00;99.90;;;;;;4872256;29;20041;-82
2022/12/30 06:03:30;;;;;;;20.63;3.70;;;5.10;99.90;;;;;;4861519;29;20056;-82
2022/12/30 06:06:07;;;;;;;16.92;3.08;;;5.00;99.90;;;;;;4929284;29;20047;-82
2022/12/30 06:08:38;;;;;;;16.38;2.65;;;5.00;99.90;;;;;;4934519;29;20158;-82
2022/12/30 06:11:31;;;;;;;19.50;3.13;;;5.20;99.90;;;;;;4952775;28;20101;-82
2022/12/30 06:17:34;;;;;;;13.18;2.70;;;5.00;99.90;;;;;;4936972;28;19938;-82
2022/12/30 06:20:02;;;;;;;16.25;3.33;;;5.00;99.90;;;;;;4954336;28;20051;-82
2022/12/30 06:22:27;;;;;;;10.35;2.55;;;5.40;99.90;;;;;;4941721;29;20902;-82
2022/12/30 06:24:53;;;;;;;19.02;3.88;;;5.00;99.90;;;;;;4955253;29;20050;-82
2022/12/30 06:27:19;;;;;;;18.15;3.25;;;5.00;99.90;;;;;;4936391;29;20042;-82
2022/12/30 06:30:24;;;;;;;15.13;2.58;;;4.90;99.90;;;;;;4952552;29;20047;-82
2022/12/30 06:33:12;;;;;;;12.30;3.03;;;5.00;99.90;;;;;;4939415;28;20426;-82
2022/12/30 06:35:38;;;;;;;16.83;3.50;;;5.00;99.90;;;;;;4937329;29;20314;-82
2022/12/30 06:38:05;;;;;;;11.32;2.55;;;4.90;99.90;;;;;;4949531;29;20035;-82
2022/12/30 06:41:12;;;;;;;18.80;3.45;;;4.90;99.90;;;;;;4936101;29;20395;-82
2022/12/30 06:44:35;;;;;;;20.17;2.80;;;4.90;99.90;;;;;;4948817;28;20054;-82
2022/12/30 06:51:07;;;;;;;15.95;3.10;;;4.90;99.90;;;;;;4892433;29;20044;-83
2022/12/30 06:53:44;;;;;;;17.10;2.60;;;4.90;99.90;;;;;;4870019;29;20047;-82
2022/12/30 06:56:10;;;;;;;16.17;2.85;;;4.90;99.90;;;;;;4897256;29;20040;-82
2022/12/30 06:58:36;;;;;;;13.40;2.45;;;4.90;99.90;;;;;;4921558;29;20066;-82
2022/12/30 07:01:02;;;;;;;18.33;2.85;;;4.90;99.90;;;;;;4947648;29;20051;-82
2022/12/30 07:03:28;;;;;;;22.92;3.72;;;5.70;99.90;;;;;;4929263;29;20039;-82
2022/12/30 07:05:53;;;;;;;15.50;2.33;;;4.80;99.90;;;;;;4950807;28;20053;-82
2022/12/30 07:08:19;;;;;;;20.67;4.05;;;4.90;99.90;;;;;;4955083;28;20039;-82
2022/12/30 07:10:45;;;;;;;22.55;3.53;;;4.80;99.90;;;;;;4938819;29;20036;-82
2022/12/30 07:13:13;;;;;;;20.58;3.17;;;4.90;99.90;;;;;;4927949;29;20067;-82
2022/12/30 07:15:39;;;;;;;14.05;2.55;;;4.90;99.90;;;;;;4949233;29;20091;-83
2022/12/30 07:18:04;;;;;;;8.93;2.13;;;4.90;99.90;;;;;;4947305;28;20422;-82
2022/12/30 07:20:30;;;;;;;16.65;2.90;;;4.90;99.90;;;;;;4934387;28;20150;-82
2022/12/30 07:22:56;;;;;;;15.55;3.45;;;4.90;99.90;;;;;;4948096;28;20035;-83
2022/12/30 07:25:21;;;;;;;13.38;3.00;;;4.90;99.90;;;;;;4924475;29;20046;-85
2022/12/30 07:27:47;;;;;;;16.58;2.28;;;4.80;99.90;;;;;;4938858;29;20051;-86
2022/12/30 07:30:13;;;;;;;17.92;3.70;;;4.90;99.90;;;;;;4942204;28;20039;-84
2022/12/30 07:32:54;;;;;;;16.95;2.72;;;4.90;99.90;;;;;;4948128;28;21032;-87
2022/12/30 07:35:23;;;;;;;18.80;2.70;;;4.80;99.90;;;;;;4956280;28;20098;-86
2022/12/30 07:37:51;;;;;;;20.52;3.08;;;4.80;99.90;;;;;;4945095;29;20070;-87
2022/12/30 07:40:17;;;;;;;14.90;2.65;;;5.10;99.90;;;;;;4939845;29;20039;-84
2022/12/30 07:42:42;;;;;;;17.25;2.75;;;4.90;99.90;;;;;;4919180;29;20135;-82
2022/12/30 07:45:08;;;;;;;17.15;3.30;;;4.80;99.90;;;;;;4938500;28;20040;-84
2022/12/30 07:47:36;;;;;;;14.63;2.85;;;4.90;99.90;;;;;;4943403;29;20401;-83
2022/12/30 07:50:05;;;;;;;16.38;2.85;;;4.90;99.90;;;;;;4938875;28;20049;-83
2022/12/30 07:52:30;;;;;;;18.27;3.20;;;4.80;99.90;;;;;;4947709;28;20365;-83
2022/12/30 07:55:06;;;;;;;18.70;2.63;;;4.90;99.90;;;;;;4942970;28;20039;-86
2022/12/30 07:57:32;;;;;;;12.38;2.40;;;4.90;99.90;;;;;;4940727;28;20031;-83
2022/12/30 07:59:57;;;;;;;17.40;3.17;;;4.90;99.90;;;;;;4943345;28;20043;-84
2022/12/30 08:02:29;;;;;;;21.52;3.03;;;4.90;99.90;;;;;;4940335;28;20043;-87
2022/12/30 08:04:54;;;;;;;15.00;3.28;;;4.90;99.90;;;;;;4945871;28;20046;-84
2022/12/30 08:07:35;;;;;;;13.80;2.58;;;4.90;99.90;;;;;;4941364;28;20051;-83
2022/12/30 08:10:01;;;;;;;13.95;2.97;;;4.90;99.90;;;;;;4946131;29;20208;-87
2022/12/30 08:12:27;;;;;;;15.27;2.63;;;4.90;99.90;;;;;;4922579;28;20073;-86
2022/12/30 08:30:22;;;;;;;12.50;3.38;;;5.10;99.90;;;;;;4949063;28;20090;-83
2022/12/30 08:32:48;;;;;;;19.58;2.95;;;5.10;99.90;;;;;;4917281;29;20166;-86
2022/12/30 08:35:14;;;;;;;17.13;3.17;;;5.10;99.90;;;;;;4932807;29;20134;-85
2022/12/30 08:37:40;;;;;;;17.65;2.65;;;5.10;99.90;;;;;;4942736;28;20050;-85
2022/12/30 08:40:13;;;;;;;16.60;3.78;;;5.20;99.90;;;;;;4933211;29;20039;-84
2022/12/30 08:42:39;;;;;;;20.27;3.05;;;5.10;99.90;;;;;;4931859;29;20035;-84
2022/12/30 08:45:06;;;;;;;16.52;2.70;;;5.20;99.90;;;;;;4943812;28;20055;-85
2022/12/30 08:47:34;;;;;;;13.57;2.78;;;5.20;99.90;;;;;;4943097;29;20051;-85
2022/12/30 08:50:02;;;;;;;15.65;2.97;;;5.30;99.90;;;;;;4942566;28;20121;-84
2022/12/30 08:52:32;;;;;;;13.23;2.60;;;5.30;99.90;;;;;;4937762;28;20039;-86
2022/12/30 08:54:58;;;;;;;9.90;2.20;;;5.40;99.90;;;;;;4921805;29;20097;-85
2022/12/30 08:57:24;;;;;;;15.90;2.42;;;5.40;99.90;;;;;;4923895;29;20042;-85
2022/12/30 08:59:49;;;;;;;12.70;2.17;;;5.40;99.90;;;;;;4921324;29;20046;-83
2022/12/30 09:02:15;;;;;;;13.45;2.78;;;5.50;99.90;;;;;;4940212;28;20040;-84
2022/12/30 09:04:41;;;;;;;14.02;3.30;;;5.50;99.90;;;;;;4941712;28;20040;-83
2022/12/30 09:07:07;;;;;;;12.93;2.65;;;5.50;99.90;;;;;;4928742;29;20081;-84
2022/12/30 09:09:32;;;;;;;15.30;3.13;;;5.60;99.90;;;;;;4941591;28;20077;-84
2022/12/30 09:11:58;;;;;;;10.20;2.38;;;5.60;99.90;;;;;;4926060;29;20035;-84
2022/12/30 09:14:24;;;;;;;15.77;2.80;;;5.60;99.90;;;;;;4925839;29;20454;-84
2022/12/30 09:16:49;;;;;;;16.50;2.05;;;5.60;99.90;;;;;;4941528;29;20047;-84
2022/12/30 09:19:16;;;;;;;12.05;2.75;;;5.70;99.90;;;;;;4941712;28;20039;-84
2022/12/30 09:21:42;;;;;;;11.68;2.22;;;5.70;99.90;;;;;;4929213;29;20517;-83
2022/12/30 09:24:09;;;;;;;15.98;3.00;;;5.70;99.90;;;;;;4931202;29;20040;-84
2022/12/30 09:26:35;;;;;;;16.98;3.05;;;5.80;99.90;;;;;;4932706;28;20039;-83
2022/12/30 09:29:00;;;;;;;9.35;1.63;;;5.80;99.90;;;;;;4947661;29;20421;-83
2022/12/30 09:31:27;;;;;;;15.10;2.38;;;5.80;99.90;;;;;;4940948;29;20047;-83
2022/12/30 09:33:52;;;;;;;12.68;2.65;;;5.90;99.90;;;;;;4941584;28;20047;-83
2022/12/30 09:36:18;;;;;;;16.92;2.17;;;5.90;99.90;;;;;;4942379;29;20032;-83
2022/12/30 09:38:44;;;;;;;12.20;2.78;;;5.90;99.90;;;;;;4943181;29;20117;-83
2022/12/30 09:44:46;;;;;;;11.77;3.38;;;6.00;99.90;;;;;;4944651;29;20458;-84
2022/12/30 09:47:31;;;;;;;7.78;1.90;;;6.00;99.90;;;;;;4940606;28;20118;-84
2022/12/30 09:50:21;;;;;;;11.13;2.07;;;6.00;99.90;;;;;;4922573;29;20047;-83
2022/12/30 09:53:00;;;;;;;13.35;1.95;;;6.10;99.90;;;;;;4942006;29;20659;-84
2022/12/30 09:56:00;;;;;;;10.27;2.30;;;6.10;99.90;;;;;;4944978;28;20043;-83
2022/12/30 09:58:42;;;;;;;12.60;2.72;;;6.10;99.90;;;;;;4929820;29;20047;-83
2022/12/30 10:01:34;;;;;;;13.10;2.20;;;6.30;99.90;;;;;;4941623;29;20414;-83
2022/12/30 10:04:01;;;;;;;9.82;1.85;;;6.20;99.90;;;;;;4942046;29;20035;-83
2022/12/30 10:06:32;;;;;;;11.02;1.85;;;6.20;99.90;;;;;;4940331;29;20071;-84
2022/12/30 10:09:06;;;;;;;10.85;2.28;;;6.30;99.90;;;;;;4931295;29;20054;-83
2022/12/30 10:12:18;;;;;;;12.65;2.92;;;6.30;99.90;;;;;;4944987;28;20043;-84
2022/12/30 10:14:56;;;;;;;7.82;1.92;;;6.30;99.90;;;;;;4928711;28;20085;-83
2022/12/30 10:17:40;;;;;;;9.52;2.17;;;6.30;99.90;;;;;;4927745;29;20071;-83
2022/12/30 10:20:34;;;;;;;13.30;2.30;;;6.40;99.90;;;;;;4945579;28;20489;-84
2022/12/30 10:23:22;;;;;;;8.75;1.95;;;6.40;99.90;;;;;;4939508;28;20505;-83
2022/12/30 10:26:11;;;;;;;7.97;2.05;;;6.40;99.90;;;;;;4939566;28;20075;-84
2022/12/30 10:28:45;;;;;;;8.18;1.70;;;6.50;99.90;;;;;;4942505;28;20047;-83
2022/12/30 10:31:19;;;;;;;9.02;1.75;;;6.60;99.90;;;;;;4945432;28;20046;-83
2022/12/30 10:33:49;;;;;;;6.50;2.10;;;6.60;99.90;;;;;;4943353;28;20146;-83
2022/12/30 10:36:32;;;;;;;10.95;3.00;;;6.60;99.90;;;;;;4926390;29;20039;-83
2022/12/30 10:39:24;;;;;;;7.05;1.30;;;6.70;99.90;;;;;;4949115;28;20058;-83
2022/12/30 10:42:05;;;;;;;10.20;1.80;;;6.70;99.90;;;;;;4938982;29;20071;-83
2022/12/30 10:44:58;;;;;;;9.50;1.75;;;6.80;99.90;;;;;;4944877;29;20663;-83
2022/12/30 10:47:43;;;;;;;10.50;2.13;;;6.90;99.90;;;;;;4934738;29;20507;-83
2022/12/30 10:50:17;;;;;;;8.85;2.28;;;6.90;99.90;;;;;;4929412;28;20509;-83
2022/12/30 10:52:43;;;;;;;11.13;2.25;;;6.90;99.90;;;;;;4928097;29;20097;-83
2022/12/30 10:55:19;;;;;;;4.75;1.42;;;7.00;99.90;;;;;;4930755;29;20035;-83
2022/12/30 10:57:45;;;;;;;5.47;0.90;;;7.00;99.90;;;;;;4948951;29;20043;-83
2022/12/30 11:00:13;;;;;;;5.70;1.00;;;7.10;99.90;;;;;;4928121;29;20398;-84
2022/12/30 11:02:40;;;;;;;6.25;0.98;;;7.20;99.90;;;;;;4928243;28;20048;-84
2022/12/30 11:05:26;;;;;;;5.38;1.30;;;7.20;99.90;;;;;;4961465;28;20083;-84
2022/12/30 11:07:57;;;;;;;9.02;1.15;;;7.30;99.90;;;;;;4948015;28;20039;-84
2022/12/30 11:10:23;;;;;;;5.32;1.10;;;7.20;99.90;;;;;;4943029;28;20039;-83
2022/12/30 11:15:50;;;;;;;7.15;1.40;;;7.30;99.90;;;;;;4943098;29;20458;-84
2022/12/30 11:18:16;;;;;;;7.25;1.17;;;7.30;99.90;;;;;;4931331;29;20039;-84
2022/12/30 11:20:42;;;;;;;7.30;1.08;;;7.30;99.90;;;;;;4945832;29;20043;-83
2022/12/30 11:23:29;;;;;;;6.45;1.45;;;7.30;99.90;;;;;;4939982;28;20044;-84
2022/12/30 11:25:56;;;;;;;5.75;1.02;;;7.40;99.90;;;;;;4931446;29;20039;-84
2022/12/30 11:28:45;;;;;;;7.63;2.20;;;7.50;99.90;;;;;;4933765;29;20031;-83
2022/12/30 11:31:14;;;;;;;4.43;1.00;;;7.40;99.90;;;;;;4946325;28;20053;-83
2022/12/30 11:33:47;;;;;;;6.38;1.20;;;7.40;99.90;;;;;;4933972;29;20047;-84
2022/12/30 11:36:33;;;;;;;8.30;1.10;;;7.50;99.90;;;;;;4932621;29;20175;-84
2022/12/30 11:39:04;;;;;;;4.65;1.00;;;7.50;99.90;;;;;;4957859;28;20058;-84
2022/12/30 11:41:32;;;;;;;9.68;0.90;;;7.50;99.90;;;;;;4944909;29;20043;-84
2022/12/30 11:44:12;;;;;;;7.18;1.08;;;7.50;99.90;;;;;;4944678;28;20058;-84
2022/12/30 11:46:43;;;;;;;7.57;1.13;;;7.60;99.90;;;;;;4931642;29;20058;-85
2022/12/30 11:49:20;;;;;;;6.25;1.05;;;7.70;99.90;;;;;;4933022;29;20047;-84
2022/12/30 11:51:51;;;;;;;8.55;2.05;;;7.60;99.90;;;;;;4942489;28;20055;-85
2022/12/30 11:54:20;;;;;;;5.03;0.90;;;7.60;99.90;;;;;;4935829;29;20063;-84
2022/12/30 11:56:59;;;;;;;5.82;1.33;;;7.70;99.90;;;;;;4946929;29;20482;-84
2022/12/30 11:59:36;;;;;;;7.82;1.17;;;8.50;99.90;;;;;;4934464;28;20051;-85
2022/12/30 12:02:26;;;;;;;7.35;1.17;;;7.70;99.90;;;;;;4937006;29;20072;-84
2022/12/30 12:04:51;;;;;;;6.72;0.90;;;7.80;99.90;;;;;;4945174;28;20090;-84
2022/12/30 12:07:17;;;;;;;7.22;1.88;;;7.90;99.90;;;;;;4941843;28;20407;-84
2022/12/30 12:10:13;;;;;;;8.45;1.10;;;7.80;99.90;;;;;;4941335;29;20079;-84
2022/12/30 12:12:45;;;;;;;12.00;1.33;;;7.80;99.90;;;;;;4941415;28;20039;-84
2022/12/30 12:15:29;;;;;;;6.38;0.95;;;7.80;99.90;;;;;;4931183;29;20581;-84
2022/12/30 12:17:59;;;;;;;6.85;1.88;;;7.90;99.90;;;;;;4944475;28;20039;-84
2022/12/30 12:20:28;;;;;;;7.43;1.33;;;8.00;99.90;;;;;;4924553;29;20123;-84
2022/12/30 12:23:13;;;;;;;6.43;1.10;;;8.00;99.90;;;;;;4925127;29;20410;-84
2022/12/30 12:25:52;;;;;;;4.93;0.85;;;8.70;99.90;;;;;;4941985;29;20118;-84
2022/12/30 12:28:17;;;;;;;8.15;0.90;;;8.10;99.90;;;;;;4940997;28;20127;-84
2022/12/30 12:31:01;;;;;;;7.45;1.65;;;8.10;99.90;;;;;;4926015;29;20122;-84
2022/12/30 12:33:59;;;;;;;6.13;1.17;;;8.10;99.90;;;;;;4918013;29;20095;-84
2022/12/30 12:36:49;;;;;;;7.05;1.20;;;8.20;99.90;;;;;;4940552;28;20109;-84
2022/12/30 12:39:47;;;;;;;5.10;0.70;;;8.20;99.90;;;;;;4940928;28;20051;-84
2022/12/30 12:42:22;;;;;;;5.60;0.80;;;8.20;99.90;;;;;;4904967;29;20194;-84
2022/12/30 12:45:29;;;;;;;5.68;0.90;;;8.30;99.90;;;;;;4931779;29;20522;-84
2022/12/30 12:48:29;;;;;;;7.32;1.35;;;8.20;99.90;;;;;;4861969;28;20064;-84
2022/12/30 12:51:28;;;;;;;6.35;0.98;;;8.30;99.90;;;;;;4941047;28;20057;-84
2022/12/30 12:54:18;;;;;;;5.95;0.98;;;8.30;99.90;;;;;;4932396;29;20058;-84
2022/12/30 12:57:03;;;;;;;9.40;1.17;;;8.40;99.90;;;;;;4946719;28;20043;-84
2022/12/30 12:59:48;;;;;;;9.10;1.85;;;8.40;99.90;;;;;;4941408;28;20039;-84
2022/12/30 13:02:42;;;;;;;4.80;0.98;;;8.40;99.90;;;;;;4925580;29;20040;-84
2022/12/30 13:05:39;;;;;;;4.90;1.05;;;8.50;99.90;;;;;;4930734;29;20787;-84
2022/12/30 13:08:13;;;;;;;10.73;2.22;;;8.50;99.90;;;;;;4944138;29;20043;-84
2022/12/30 13:10:59;;;;;;;7.88;1.58;;;8.50;99.90;;;;;;4942747;28;20410;-84
2022/12/30 13:13:34;;;;;;;7.40;1.02;;;8.50;99.90;;;;;;4902542;29;20067;-84
2022/12/30 13:16:10;;;;;;;5.70;1.05;;;8.60;99.90;;;;;;4943223;28;20039;-84
2022/12/30 13:18:40;;;;;;;5.05;1.13;;;8.60;99.90;;;;;;4929710;29;20046;-85
2022/12/30 13:21:09;;;;;;;10.50;1.77;;;8.60;99.90;;;;;;4958590;28;20031;-84
2022/12/30 13:23:43;;;;;;;8.88;1.20;;;8.70;99.90;;;;;;4946146;29;20098;-84
2022/12/30 13:26:09;;;;;;;3.40;0.90;;;8.70;99.90;;;;;;4929116;29;20510;-84
2022/12/30 13:28:35;;;;;;;7.70;0.85;;;8.70;99.90;;;;;;4930526;28;20103;-84
2022/12/30 13:31:50;;;;;;;8.65;1.30;;;8.80;99.90;;;;;;4941829;28;20048;-86
2022/12/30 13:34:43;;;;;;;4.50;1.35;;;8.80;99.90;;;;;;4879554;28;20869;-85
2022/12/30 13:37:12;;;;;;;7.03;1.38;;;8.80;99.90;;;;;;4926961;29;20047;-85
2022/12/30 13:39:52;;;;;;;7.78;1.40;;;8.80;99.90;;;;;;4956469;28;20102;-84
2022/12/30 13:42:43;;;;;;;6.82;1.83;;;8.80;99.90;;;;;;4941496;28;20054;-84
2022/12/30 13:45:27;;;;;;;8.75;2.17;;;8.90;99.90;;;;;;4940939;29;20046;-84
2022/12/30 13:48:04;;;;;;;8.20;1.40;;;8.80;99.90;;;;;;4945017;29;20043;-85
2022/12/30 13:50:39;;;;;;;4.90;1.10;;;8.90;99.90;;;;;;4940441;28;20046;-85
2022/12/30 13:53:38;;;;;;;4.68;1.05;;;8.90;99.90;;;;;;4926847;28;20047;-84
2022/12/30 13:56:05;;;;;;;5.72;1.25;;;9.00;99.90;;;;;;4943936;29;20047;-85
2022/12/30 13:58:35;;;;;;;4.90;0.77;;;9.00;99.90;;;;;;4928652;29;20046;-85
2022/12/30 14:01:19;;;;;;;6.35;0.95;;;9.00;99.90;;;;;;4948016;29;20759;-84
2022/12/30 14:04:12;;;;;;;5.88;1.00;;;9.00;99.90;;;;;;4946968;28;20511;-84
2022/12/30 14:06:42;;;;;;;7.05;0.88;;;9.00;99.90;;;;;;4947849;29;20051;-84
2022/12/30 14:09:17;;;;;;;7.70;0.88;;;9.00;99.90;;;;;;4933003;28;20048;-85
2022/12/30 14:12:04;;;;;;;6.18;1.42;;;9.00;99.90;;;;;;4934787;29;20048;-86
2022/12/30 14:14:31;;;;;;;6.00;1.15;;;9.10;99.90;;;;;;4948638;29;20042;-84
2022/12/30 14:17:15;;;;;;;5.53;1.20;;;9.00;99.90;;;;;;4936103;29;20136;-85
2022/12/30 14:19:43;;;;;;;6.93;1.13;;;9.00;99.90;;;;;;4938408;29;20052;-84
2022/12/30 14:22:09;;;;;;;3.90;0.60;;;9.00;99.90;;;;;;4935412;29;20586;-85
2022/12/30 14:24:37;;;;;;;7.22;1.63;;;9.00;99.90;;;;;;4934714;29;20106;-84
2022/12/30 14:27:03;;;;;;;6.93;1.25;;;8.90;99.90;;;;;;4933410;28;20130;-84
2022/12/30 14:29:34;;;;;;;4.13;0.70;;;9.00;99.90;;;;;;4946064;29;20434;-84
2022/12/30 14:32:06;;;;;;;3.83;1.02;;;8.90;99.90;;;;;;4937349;28;20097;-84
2022/12/30 14:34:42;;;;;;;7.28;0.90;;;8.90;99.90;;;;;;4931247;28;20054;-85
2022/12/30 14:37:22;;;;;;;7.97;1.13;;;8.90;99.90;;;;;;4935679;29;20052;-84
2022/12/30 14:39:49;;;;;;;4.07;0.75;;;8.90;99.90;;;;;;4933697;28;20153;-85
2022/12/30 14:42:24;;;;;;;5.22;0.95;;;8.80;99.90;;;;;;4935304;29;20071;-84
2022/12/30 14:44:58;;;;;;;5.25;1.00;;;8.80;99.90;;;;;;4945749;29;20067;-85
2022/12/30 14:47:45;;;;;;;5.90;0.98;;;8.80;99.90;;;;;;4959631;28;20047;-84